M I D A S
Marine Information and Data Acquisition System
Tripno 2166 of the Zeeleeuw from 2011-08-18 06:46:36 to 2011-08-18 17:00:00
Back to CruiseResearch ActivitiesStationsMapUnderway DataData graphs

EquipmentUnitsComment
TimeDGPSUTC
LatitudeDGPSDM.mWGS84
LongitudeDGPSDM.mWGS84
HeadingGyrodeg 
SOGDGPSknotsSpeed over ground
COGDGPSdegCourse over ground
DepthEcho soundermeters200 kHz
Missing or incorrect values are displayed as -999
Navigation data collected by the RV Zeeleeuw from 2011-08-18 06:30:54 to 2011-08-18 13:55:43
Time Latitude Longitude Heading SOG COG Depth
2011-08-18 06:31:59 51°13.635 2°56.018 110.2 0.1 192 5.7
2011-08-18 06:32:59 51°13.637 2°56 106.6 2.2 287 5.5
2011-08-18 06:34:02 51°13.663 2°55.905 122.7 4.5 301 -999
2011-08-18 06:35:03 51°13.717 2°55.805 136.4 5.2 316 -999
2011-08-18 06:36:02 51°13.779 2°55.704 138.3 5.3 318 -999
2011-08-18 06:37:02 51°13.856 2°55.635 168.9 5.2 346 -999
2011-08-18 06:38:02 51°13.922 2°55.638 200 2.9 14 11.6
2011-08-18 06:39:02 51°13.957 2°55.661 218.1 1.9 27 12.1
2011-08-18 06:39:59 51°13.964 2°55.617 286.8 4.2 296 12
2011-08-18 06:40:59 51°14.045 2°55.509 329.3 7.8 328 11.6
2011-08-18 06:41:59 51°14.165 2°55.392 331.6 8.7 329 11.2
2011-08-18 06:42:59 51°14.289 2°55.265 330.3 8.9 327 10.5
2011-08-18 06:43:59 51°14.415 2°55.14 329.5 9 327 11.2
2011-08-18 06:44:59 51°14.535 2°55.001 325.4 9 318 12.2
2011-08-18 06:45:59 51°14.658 2°54.806 328.6 11.5 321 11.5
2011-08-18 06:46:59 51°14.823 2°54.61 332.1 12.7 325 12
2011-08-18 06:47:59 51°14.993 2°54.41 326.1 12.7 321 11.6
2011-08-18 06:48:59 51°15.154 2°54.191 325 12.9 320 11.3
2011-08-18 06:49:59 51°15.322 2°53.981 327.3 12.9 322 11.2
2011-08-18 06:50:59 51°15.483 2°53.757 324.7 12.8 319 10.6
2011-08-18 06:51:59 51°15.65 2°53.547 330.8 12.7 325 11.2
2011-08-18 06:52:59 51°15.828 2°53.366 333.7 12.7 328 11.7
2011-08-18 06:53:59 51°16.013 2°53.203 339.9 12.7 334 12.6
2011-08-18 06:54:59 51°16.2 2°53.051 337.4 12.6 330 12.8
2011-08-18 06:55:59 51°16.381 2°52.882 336.9 12.6 331 12
2011-08-18 06:56:59 51°16.569 2°52.738 341.7 12.6 335 11.7
2011-08-18 06:57:59 51°16.762 2°52.611 343.7 12.5 338 9.8
2011-08-18 06:58:59 51°16.953 2°52.481 341.4 12.5 334 10
2011-08-18 06:59:59 51°17.139 2°52.33 340 12.6 336 10.1
2011-08-18 07:00:59 51°17.332 2°52.197 342.1 12.6 335 11.4
2011-08-18 07:01:59 51°17.521 2°52.053 339.6 12.6 333 11.1
2011-08-18 07:02:59 51°17.709 2°51.904 340.9 12.6 334 10.1
2011-08-18 07:03:59 51°17.9 2°51.768 343 12.6 337 10.4
2011-08-18 07:04:59 51°18.089 2°51.621 341.2 12.6 335 10.8
2011-08-18 07:05:59 51°18.284 2°51.495 343.6 12.7 336 12.1
2011-08-18 07:06:59 51°18.475 2°51.351 339.8 12.8 333 13.2
2011-08-18 07:07:59 51°18.666 2°51.202 339.9 12.8 332 14.1
2011-08-18 07:08:59 51°18.854 2°51.044 339.6 12.8 333 14.7
2011-08-18 07:09:59 51°19.045 2°50.898 341.5 12.7 336 14.7
2011-08-18 07:10:59 51°19.235 2°50.749 339.9 12.8 332 14.2
2011-08-18 07:11:59 51°19.425 2°50.595 339.5 12.8 333 12.4
2011-08-18 07:12:59 51°19.617 2°50.444 339.9 13 332 11.9
2011-08-18 07:13:59 51°19.808 2°50.289 342.4 12.8 335 13.8
2011-08-18 07:14:59 51°19.998 2°50.131 338.4 12.9 332 15.1
2011-08-18 07:15:59 51°20.187 2°49.978 342.7 12.6 335 17.8
2011-08-18 07:16:59 51°20.378 2°49.845 344.8 12.6 337 20.3
2011-08-18 07:17:59 51°20.566 2°49.691 338.6 12.8 331 22.1
2011-08-18 07:18:59 51°20.759 2°49.543 342.4 12.9 334 22.8
2011-08-18 07:19:59 51°20.955 2°49.398 342.7 13.1 335 22.3
2011-08-18 07:20:59 51°21.151 2°49.249 342.5 13 335 21.7
2011-08-18 07:21:59 51°21.346 2°49.101 341.8 13 334 20.8
2011-08-18 07:22:59 51°21.544 2°48.96 343.7 13 336 21.5
2011-08-18 07:23:59 51°21.739 2°48.809 341.5 13.1 335 23.4
2011-08-18 07:24:59 51°21.937 2°48.663 341.6 13 336 22.6
2011-08-18 07:25:59 51°22.134 2°48.521 342.1 12.9 335 23.6
2011-08-18 07:26:59 51°22.327 2°48.376 343.3 12.9 338 20.4
2011-08-18 07:27:59 51°22.522 2°48.239 341.6 12.7 335 13.1
2011-08-18 07:28:59 51°22.714 2°48.091 341.2 12.8 334 16.1
2011-08-18 07:29:59 51°22.907 2°47.949 344.1 12.8 338 19
2011-08-18 07:30:59 51°23.102 2°47.811 342.9 12.9 336 19.9
2011-08-18 07:31:59 51°23.297 2°47.67 340.2 12.9 334 19.3
2011-08-18 07:32:59 51°23.492 2°47.526 342.5 12.9 337 19.6
2011-08-18 07:33:59 51°23.685 2°47.384 341.5 12.7 335 20.2
2011-08-18 07:34:59 51°23.879 2°47.247 344.8 12.8 338 25
2011-08-18 07:35:59 51°24.074 2°47.109 341.7 12.9 334 26.1
2011-08-18 07:36:59 51°24.265 2°46.961 342.9 12.7 336 26.9
2011-08-18 07:37:59 51°24.458 2°46.828 342.8 12.7 334 30.1
2011-08-18 07:38:59 51°24.645 2°46.677 343 12.6 335 26.6
2011-08-18 07:39:59 51°24.837 2°46.534 342.6 12.8 335 25.2
2011-08-18 07:40:59 51°25.032 2°46.395 342.8 12.8 335 24.5
2011-08-18 07:41:59 51°25.221 2°46.242 340.3 12.8 333 25.4
2011-08-18 07:42:59 51°25.418 2°46.105 346.7 12.8 340 23.2
2011-08-18 07:43:59 51°25.618 2°45.977 343.3 13 336 23.3
2011-08-18 07:44:59 51°25.812 2°45.826 340.8 13.1 333 24.9
2011-08-18 07:45:59 51°26.007 2°45.68 341.6 12.9 335 24.5
2011-08-18 07:46:59 51°26.201 2°45.541 344.4 12.7 337 26.1
2011-08-18 07:47:59 51°26.392 2°45.401 341.4 12.6 334 26.7
2011-08-18 07:48:59 51°26.581 2°45.251 341.7 12.7 334 27.7
2011-08-18 07:49:59 51°26.773 2°45.105 341.6 12.8 335 27.3
2011-08-18 07:50:59 51°26.966 2°44.964 342.5 12.8 333 28
2011-08-18 07:51:59 51°27.156 2°44.812 341.1 12.9 334 27.5
2011-08-18 07:52:59 51°27.349 2°44.668 343.7 12.8 336 25.2
2011-08-18 07:53:59 51°27.544 2°44.53 344.6 12.8 337 24.9
2011-08-18 07:54:59 51°27.738 2°44.395 345.6 12.7 338 26.4
2011-08-18 07:55:59 51°27.93 2°44.257 341.1 12.6 334 27.4
2011-08-18 07:56:59 51°28.118 2°44.113 344.6 12.5 338 29.5
2011-08-18 07:57:59 51°28.31 2°43.978 342.7 12.6 335 29.8
2011-08-18 07:58:59 51°28.501 2°43.836 343.7 12.7 336 29.7
2011-08-18 07:59:59 51°28.697 2°43.709 344.5 12.7 337 27.8
2011-08-18 08:00:59 51°28.89 2°43.571 341.2 12.6 335 28.4
2011-08-18 08:01:59 51°29.082 2°43.435 343.8 12.6 338 30
2011-08-18 08:02:59 51°29.274 2°43.302 342.8 12.5 337 29.5
2011-08-18 08:03:59 51°29.467 2°43.172 343.6 12.6 337 29.3
2011-08-18 08:04:59 51°29.666 2°43.11 9.4 11.9 7 30.4
2011-08-18 08:05:59 51°29.85 2°43.209 25.2 11.8 20 30.8
2011-08-18 08:06:59 51°30.033 2°43.322 26 11.9 19 31.3
2011-08-18 08:07:59 51°30.218 2°43.428 24.8 11.8 18 32.1
2011-08-18 08:08:59 51°30.404 2°43.526 24.2 11.7 18 29.8
2011-08-18 08:09:59 51°30.591 2°43.614 19.1 11.7 12 31.7
2011-08-18 08:10:59 51°30.78 2°43.697 22.3 11.8 16 27.7
2011-08-18 08:11:59 51°30.968 2°43.78 21.9 11.7 16 31.1
2011-08-18 08:12:59 51°31.154 2°43.877 22.7 11.8 17 33.1
2011-08-18 08:13:59 51°31.344 2°43.959 21.5 11.7 16 33.1
2011-08-18 08:14:59 51°31.53 2°44.053 24.3 11.8 19 31.7
2011-08-18 08:15:59 51°31.716 2°44.15 21.8 11.8 16 33.6
2011-08-18 08:16:59 51°31.906 2°44.23 21.4 11.8 16 33.7
2011-08-18 08:17:59 51°32.091 2°44.328 24.2 11.7 18 32.3
2011-08-18 08:18:59 51°32.279 2°44.409 20.2 11.7 15 29.9
2011-08-18 08:19:59 51°32.463 2°44.504 26 11.6 22 30.1
2011-08-18 08:20:59 51°32.645 2°44.612 24.1 11.7 18 27.7
2011-08-18 08:21:59 51°32.828 2°44.709 26.1 11.6 22 27.4
2011-08-18 08:22:59 51°33.009 2°44.82 25.3 11.6 19 28.3
2011-08-18 08:23:59 51°33.192 2°44.919 25.6 11.7 21 28
2011-08-18 08:24:59 51°33.37 2°45.036 26.9 11.6 21 27.2
2011-08-18 08:25:59 51°33.553 2°45.132 23.1 11.5 17 27.6
2011-08-18 08:26:59 51°33.734 2°45.242 27.4 11.6 23 28.8
2011-08-18 08:27:59 51°33.914 2°45.351 23.8 11.6 18 28.4
2011-08-18 08:28:59 51°34.097 2°45.447 24 11.6 20 27.1
2011-08-18 08:29:59 51°34.277 2°45.562 25.5 11.5 20 26.3
2011-08-18 08:30:59 51°34.46 2°45.659 24.6 11.6 19 25.8
2011-08-18 08:31:59 51°34.639 2°45.77 27.5 11.5 23 25.3
2011-08-18 08:32:59 51°34.821 2°45.866 20 11.5 12 25.2
2011-08-18 08:33:59 51°35.005 2°45.953 24.7 11.6 19 21.7
2011-08-18 08:34:59 51°35.184 2°46.064 27.9 11.5 21 21.2
2011-08-18 08:35:59 51°35.367 2°46.161 22.3 11.6 16 19.4
2011-08-18 08:36:59 51°35.549 2°46.252 25.8 11.5 20 17.6
2011-08-18 08:37:59 51°35.727 2°46.36 27.5 11.5 20 16.2
2011-08-18 08:38:59 51°35.908 2°46.458 23.6 11.5 15 17.9
2011-08-18 08:39:59 51°36.092 2°46.543 24.4 11.4 17 16.8
2011-08-18 08:40:59 51°36.281 2°46.607 19.3 11.6 11 15.9
2011-08-18 08:41:59 51°36.468 2°46.678 22.5 11.6 14 18.3
2011-08-18 08:42:59 51°36.655 2°46.75 21.1 11.5 13 19
2011-08-18 08:43:59 51°36.841 2°46.823 24 11.3 16 20.3
2011-08-18 08:44:59 51°37.026 2°46.898 20.4 11.6 12 20
2011-08-18 08:45:59 51°37.214 2°46.963 20.5 11.6 13 21.4
2011-08-18 08:46:59 51°37.398 2°47.048 24.3 11.5 17 22.3
2011-08-18 08:47:59 51°37.584 2°47.128 23.6 11.5 17 22.2
2011-08-18 08:48:59 51°37.766 2°47.217 22.8 11.5 15 18.4
2011-08-18 08:49:59 51°37.946 2°47.319 26.8 11.4 19 21.9
2011-08-18 08:50:59 51°38.126 2°47.418 27 11.5 20 20.8
2011-08-18 08:51:59 51°38.3 2°47.537 28.1 11.4 22 21.9
2011-08-18 08:52:59 51°38.477 2°47.641 26.9 11.3 21 20.1
2011-08-18 08:53:59 51°38.652 2°47.749 25.7 11.3 18 20.3
2011-08-18 08:54:59 51°38.83 2°47.85 26.9 11.3 21 20.1
2011-08-18 08:55:59 51°39.006 2°47.954 27.4 11.4 22 19.1
2011-08-18 08:56:59 51°39.182 2°48.065 26.4 11.4 20 23.3
2011-08-18 08:57:59 51°39.359 2°48.167 27.9 11.2 23 21.9
2011-08-18 08:58:59 51°39.532 2°48.279 28.4 11.3 22 22.1
2011-08-18 08:59:59 51°39.706 2°48.389 25.5 11.3 19 22.2
2011-08-18 09:00:59 51°39.883 2°48.483 26.2 11.1 20 20.7
2011-08-18 09:01:59 51°40.055 2°48.594 28.4 11.2 20 15.4
2011-08-18 09:02:59 51°40.229 2°48.699 26.9 11.1 21 23.3
2011-08-18 09:03:59 51°40.404 2°48.805 27.7 11.4 22 23.1
2011-08-18 09:04:59 51°40.578 2°48.909 25.2 11.2 19 25.7
2011-08-18 09:05:59 51°40.755 2°49.007 24.8 11.3 19 26.2
2011-08-18 09:06:59 51°40.931 2°49.103 24.8 11.2 19 25.1
2011-08-18 09:07:59 51°41.11 2°49.123 350.6 11.6 333 25.3
2011-08-18 09:08:59 51°41.248 2°48.878 315.2 13 306 24.4
2011-08-18 09:09:59 51°41.385 2°48.615 319.4 12.9 310 26.5
2011-08-18 09:10:59 51°41.524 2°48.36 323 12.6 317 28.4
2011-08-18 09:11:59 51°41.672 2°48.117 323.1 12.6 315 26.2
2011-08-18 09:12:59 51°41.799 2°47.857 299 12.8 284 32.4
2011-08-18 09:13:59 51°41.723 2°47.542 225.1 13.9 221 30.6
2011-08-18 09:14:59 51°41.524 2°47.343 204.9 14.1 205 31.3
2011-08-18 09:15:59 51°41.305 2°47.228 190.1 13.9 192 32.7
2011-08-18 09:16:59 51°41.081 2°47.121 194.2 14.3 198 33.2
2011-08-18 09:17:59 51°40.857 2°47.019 190.6 14.1 195 34.7
2011-08-18 09:18:59 51°40.632 2°46.912 192.6 14 195 33.8
2011-08-18 09:19:59 51°40.409 2°46.798 194.1 14 199 33
2011-08-18 09:20:59 51°40.186 2°46.71 183.7 14 190 31.6
2011-08-18 09:21:59 51°39.955 2°46.644 187.2 14.1 193 33.3
2011-08-18 09:22:59 51°39.727 2°46.564 190.2 14 194 32.1
2011-08-18 09:23:59 51°39.501 2°46.486 188.6 13.8 193 33.7
2011-08-18 09:24:59 51°39.276 2°46.386 193.2 14.1 196 33.7
2011-08-18 09:25:59 51°39.049 2°46.281 192.6 14.5 198 33.4
2011-08-18 09:26:59 51°38.821 2°46.189 191.7 14.1 195 33.9
2011-08-18 09:27:59 51°38.592 2°46.096 190.4 14.2 195 32.6
2011-08-18 09:28:59 51°38.368 2°46.001 193.5 14.1 198 31.9
2011-08-18 09:29:59 51°38.141 2°45.898 192.6 14.2 199 33.2
2011-08-18 09:30:59 51°37.915 2°45.799 190.2 14 195 34.7
2011-08-18 09:31:59 51°37.688 2°45.701 191 14.1 195 33.2
2011-08-18 09:32:59 51°37.465 2°45.588 193.9 14.1 196 35.3
2011-08-18 09:33:59 51°37.24 2°45.471 192.6 14.1 198 34.1
2011-08-18 09:34:59 51°37.015 2°45.345 194.3 14.1 199 36
2011-08-18 09:35:59 51°36.791 2°45.226 192.4 14.3 198 35.6
2011-08-18 09:36:59 51°36.568 2°45.107 196.6 14 201 35.5
2011-08-18 09:37:59 51°36.347 2°44.981 195.6 14.1 198 35.3
2011-08-18 09:38:59 51°36.125 2°44.859 195.1 14 196 37
2011-08-18 09:39:59 51°35.906 2°44.736 196.2 13.7 197 34.1
2011-08-18 09:40:59 51°35.685 2°44.62 194.4 14 199 34.7
2011-08-18 09:41:59 51°35.467 2°44.498 195.3 13.9 194 33.5
2011-08-18 09:42:59 51°35.245 2°44.377 195.1 14.1 198 30.9
2011-08-18 09:43:59 51°35.025 2°44.25 196.6 13.9 200 34.1
2011-08-18 09:44:59 51°34.803 2°44.126 195.2 14.3 197 31.5
2011-08-18 09:45:59 51°34.581 2°44.007 194.7 14.1 198 30.5
2011-08-18 09:46:59 51°34.359 2°43.891 196.5 13.9 199 30.7
2011-08-18 09:47:59 51°34.141 2°43.764 195.4 13.9 197 30.9
2011-08-18 09:48:59 51°33.92 2°43.645 193.9 14.1 198 30.7
2011-08-18 09:49:59 51°33.699 2°43.53 196.3 13.8 202 30.8
2011-08-18 09:50:59 51°33.487 2°43.382 201.1 14.3 206 30.7
2011-08-18 09:51:59 51°33.318 2°43.129 235.2 14.3 232 30.7
2011-08-18 09:52:59 51°33.186 2°42.811 239.9 14.5 237 30.6
2011-08-18 09:53:59 51°33.056 2°42.489 243.5 14.2 239 29.9
2011-08-18 09:54:59 51°32.941 2°42.154 241 14.6 238 33.1
2011-08-18 09:55:59 51°32.816 2°41.824 240.4 14.5 239 34.7
2011-08-18 09:56:59 51°32.696 2°41.495 245.4 14.1 242 33.4
2011-08-18 09:57:59 51°32.581 2°41.163 245 14 240 35.9
2011-08-18 09:58:59 51°32.471 2°40.832 245.4 14.1 246 35.8
2011-08-18 09:59:59 51°32.522 2°40.564 338.7 9.7 338 35.8
2011-08-18 10:00:59 51°32.681 2°40.606 17 10.6 12 37.3
2011-08-18 10:01:59 51°32.85 2°40.688 23.7 10.5 21 37.9
2011-08-18 10:02:59 51°33.014 2°40.78 20.9 10.4 17 38.4
2011-08-18 10:03:59 51°33.181 2°40.863 19.5 10.5 15 37.4
2011-08-18 10:04:59 51°33.349 2°40.941 21.2 10.4 18 37.1
2011-08-18 10:05:59 51°33.513 2°41.034 23.2 10.5 19 37.7
2011-08-18 10:06:59 51°33.679 2°41.117 20.3 10.5 17 38.7
2011-08-18 10:07:59 51°33.846 2°41.194 21.4 10.3 19 38.8
2011-08-18 10:08:59 51°34.011 2°41.282 20.6 10.3 18 38.9
2011-08-18 10:09:59 51°34.177 2°41.361 20.5 10.4 18 38.9
2011-08-18 10:10:59 51°34.341 2°41.45 22.5 10.4 19 38
2011-08-18 10:11:59 51°34.504 2°41.538 22.4 10.3 18 38.9
2011-08-18 10:12:59 51°34.669 2°41.624 21.2 10.4 19 39.6
2011-08-18 10:13:59 51°34.834 2°41.712 20 10.5 17 40.5
2011-08-18 10:14:59 51°35.001 2°41.791 20.7 10.4 16 39.1
2011-08-18 10:15:59 51°35.164 2°41.884 22.8 10.4 21 39.1
2011-08-18 10:16:59 51°35.33 2°41.97 21.5 10.4 19 39.3
2011-08-18 10:17:59 51°35.494 2°42.061 21.5 10.5 18 39.3
2011-08-18 10:18:59 51°35.663 2°42.141 20.1 10.6 17 40.6
2011-08-18 10:19:59 51°35.828 2°42.237 23.7 10.4 20 40.5
2011-08-18 10:20:59 51°35.997 2°42.318 19.8 10.7 17 40.4
2011-08-18 10:21:59 51°36.166 2°42.408 22.9 10.7 21 39
2011-08-18 10:22:59 51°36.333 2°42.5 20.6 10.5 17 37.3
2011-08-18 10:23:59 51°36.502 2°42.583 21.1 10.6 19 38.6
2011-08-18 10:24:59 51°36.668 2°42.678 21.5 10.6 18 37.3
2011-08-18 10:25:59 51°36.838 2°42.758 20.8 10.7 19 38.1
2011-08-18 10:26:59 51°37.004 2°42.854 22.6 10.7 19 36.6
2011-08-18 10:27:59 51°37.175 2°42.936 20.5 10.7 17 35.5
2011-08-18 10:28:59 51°37.343 2°43.026 23.4 10.7 20 39.9
2011-08-18 10:29:59 51°37.51 2°43.119 21.1 10.6 18 36.7
2011-08-18 10:30:59 51°37.682 2°43.195 19.4 10.7 15 36.2
2011-08-18 10:31:59 51°37.851 2°43.275 23 10.6 19 36.9
2011-08-18 10:32:59 51°38.019 2°43.359 20.1 10.6 15 36.9
2011-08-18 10:33:59 51°38.189 2°43.443 21.6 10.7 17 36.3
2011-08-18 10:34:59 51°38.356 2°43.532 21.8 10.6 17 36.3
2011-08-18 10:35:59 51°38.527 2°43.61 22.4 10.6 19 35.3
2011-08-18 10:36:59 51°38.691 2°43.715 25.7 10.6 20 36.4
2011-08-18 10:37:59 51°38.857 2°43.811 24.6 10.5 21 37.1
2011-08-18 10:38:59 51°39.024 2°43.901 23.4 10.5 20 36.5
2011-08-18 10:39:59 51°39.188 2°44.003 23.2 10.5 19 33.7
2011-08-18 10:40:59 51°39.353 2°44.095 24.1 10.5 21 36.8
2011-08-18 10:41:59 51°39.518 2°44.196 24.7 10.6 20 35.6
2011-08-18 10:42:59 51°39.686 2°44.28 21.9 10.6 17 37.5
2011-08-18 10:43:59 51°39.853 2°44.372 25.9 10.6 21 38
2011-08-18 10:44:59 51°40.017 2°44.471 24.3 10.4 19 35
2011-08-18 10:45:59 51°40.185 2°44.554 21.2 10.5 15 37.4
2011-08-18 10:46:59 51°40.354 2°44.636 24.8 10.5 20 36.4
2011-08-18 10:47:59 51°40.521 2°44.729 22 10.5 16 36.3
2011-08-18 10:48:59 51°40.689 2°44.814 24.9 10.5 18 36.6
2011-08-18 10:49:59 51°40.858 2°44.901 21.7 10.6 14 36.3
2011-08-18 10:50:59 51°41.026 2°44.991 25.3 10.6 20 37.7
2011-08-18 10:51:59 51°41.195 2°45.077 21.2 10.5 15 35.9
2011-08-18 10:52:59 51°41.366 2°45.157 24.2 10.6 19 31.3
2011-08-18 10:53:59 51°41.533 2°45.243 22.7 10.7 17 38.7
2011-08-18 10:54:59 51°41.702 2°45.332 26 10.7 20 38.9
2011-08-18 10:55:59 51°41.869 2°45.429 25.7 10.7 19 34.1
2011-08-18 10:56:59 51°42.04 2°45.515 22.3 10.7 16 37.1
2011-08-18 10:57:59 51°42.206 2°45.599 23.7 10.8 17 38.7
2011-08-18 10:58:59 51°42.376 2°45.693 24 10.9 18 36.4
2011-08-18 10:59:59 51°42.549 2°45.771 21 10.8 16 31.8
2011-08-18 11:00:59 51°42.718 2°45.862 26.6 10.7 20 38.5
2011-08-18 11:01:59 51°42.887 2°45.964 23.8 10.9 18 38.2
2011-08-18 11:02:59 51°43.059 2°46.034 13.6 10.6 357 36.7
2011-08-18 11:03:59 51°43.202 2°45.841 322.4 11.8 316 36.7
2011-08-18 11:04:59 51°43.35 2°45.625 330.2 12 320 37.2
2011-08-18 11:05:59 51°43.487 2°45.394 313.9 12.5 298 37
2011-08-18 11:06:59 51°43.54 2°45.059 289.1 13.1 278 35.4
2011-08-18 11:07:59 51°43.576 2°44.713 289.7 13.1 280 36.2
2011-08-18 11:08:59 51°43.592 2°44.361 270.9 13.6 260 33.4
2011-08-18 11:09:59 51°43.441 2°44.153 180.9 13 186 38.6
2011-08-18 11:10:59 51°43.221 2°44.047 205 14.2 205 34.2
2011-08-18 11:11:59 51°43.011 2°43.873 203 14.2 203 32.3
2011-08-18 11:12:59 51°42.789 2°43.728 200 14.2 200 37
2011-08-18 11:13:59 51°42.567 2°43.597 197.5 14.3 201 33.3
2011-08-18 11:14:59 51°42.348 2°43.456 199.9 14.3 202 31
2011-08-18 11:15:59 51°42.127 2°43.311 198.9 14.4 203 32.3
2011-08-18 11:16:59 51°41.902 2°43.181 198.4 14.1 199 35.4
2011-08-18 11:17:59 51°41.682 2°43.051 196.2 14.1 202 32.8
2011-08-18 11:18:59 51°41.463 2°42.912 198.4 14.2 204 30.7
2011-08-18 11:19:59 51°41.241 2°42.772 200.5 14.2 201 34.5
2011-08-18 11:20:59 51°41.017 2°42.638 196.1 14.4 201 28.4
2011-08-18 11:21:59 51°40.794 2°42.511 196 14 197 33.7
2011-08-18 11:22:59 51°40.572 2°42.384 194.8 14.4 198 30.9
2011-08-18 11:23:59 51°40.352 2°42.256 197 13.9 201 31.1
2011-08-18 11:24:59 51°40.129 2°42.135 192.4 14.2 199 29.6
2011-08-18 11:25:59 51°39.905 2°42.023 194.1 14.3 198 30.1
2011-08-18 11:26:59 51°39.678 2°41.913 190.3 14.1 193 28.5
2011-08-18 11:27:59 51°39.454 2°41.808 192.7 14.1 195 27.6
2011-08-18 11:28:59 51°39.23 2°41.699 193.8 14 198 26.1
2011-08-18 11:29:59 51°39.007 2°41.587 193.7 14.4 198 21.7
2011-08-18 11:30:59 51°38.782 2°41.465 193.5 14.1 201 15.3
2011-08-18 11:31:59 51°38.556 2°41.36 189.9 14.1 195 23.4
2011-08-18 11:32:59 51°38.33 2°41.253 192.5 14.2 197 21.9
2011-08-18 11:33:59 51°38.106 2°41.144 193.1 13.9 198 27
2011-08-18 11:34:59 51°37.885 2°41.023 195 14.1 199 21
2011-08-18 11:35:59 51°37.664 2°40.903 193.6 14.3 201 22.5
2011-08-18 11:36:59 51°37.444 2°40.794 192.9 14 200 22.9
2011-08-18 11:37:59 51°37.221 2°40.685 191 14 196 21.2
2011-08-18 11:38:59 51°37.002 2°40.566 195.4 13.8 199 21
2011-08-18 11:39:59 51°36.782 2°40.45 193.7 14 196 22.1
2011-08-18 11:40:59 51°36.56 2°40.34 193.4 13.8 195 23.2
2011-08-18 11:41:59 51°36.341 2°40.228 193.4 13.7 199 25.1
2011-08-18 11:42:59 51°36.121 2°40.123 193.8 13.8 195 26.7
2011-08-18 11:43:59 51°35.899 2°40.019 192.6 13.9 196 27.1
2011-08-18 11:44:59 51°35.678 2°39.921 193.1 13.8 198 28.9
2011-08-18 11:45:59 51°35.461 2°39.808 196.1 13.7 196 30.1
2011-08-18 11:46:59 51°35.244 2°39.703 192.7 13.7 198 27.5
2011-08-18 11:47:59 51°35.024 2°39.606 194 13.8 197 27.9
2011-08-18 11:48:59 51°34.804 2°39.506 194.2 13.8 197 29.1
2011-08-18 11:49:59 51°34.587 2°39.397 194.1 13.8 197 26.1
2011-08-18 11:50:59 51°34.37 2°39.283 196.6 13.8 201 26.4
2011-08-18 11:51:59 51°34.156 2°39.167 195.4 13.7 193 25.5
2011-08-18 11:52:59 51°33.938 2°39.055 197.1 13.6 197 26.3
2011-08-18 11:53:59 51°33.719 2°38.945 192.7 13.8 197 23.4
2011-08-18 11:54:59 51°33.499 2°38.832 196 13.7 198 22.4
2011-08-18 11:55:59 51°33.277 2°38.712 194.3 14 196 20.4
2011-08-18 11:56:59 51°33.056 2°38.598 194.6 14 200 17.8
2011-08-18 11:57:59 51°32.838 2°38.482 195.1 13.7 197 17.4
2011-08-18 11:58:59 51°32.617 2°38.373 193.8 13.8 197 17.5
2011-08-18 11:59:59 51°32.402 2°38.259 196.2 13.6 202 16.2
2011-08-18 12:00:59 51°32.184 2°38.133 195.5 13.9 199 16.6
2011-08-18 12:01:59 51°31.964 2°38.016 193.9 13.8 199 15.5
2011-08-18 12:02:59 51°31.747 2°37.9 194.8 13.6 198 14.8
2011-08-18 12:03:59 51°31.53 2°37.774 195.5 13.8 201 13
2011-08-18 12:04:59 51°31.312 2°37.652 195.5 14 197 16.4
2011-08-18 12:05:59 51°31.092 2°37.525 195.6 14.2 199 18.8
2011-08-18 12:06:59 51°30.872 2°37.412 195.1 13.6 197 22
2011-08-18 12:07:59 51°30.653 2°37.298 197.4 14.1 197 22.5
2011-08-18 12:08:59 51°30.437 2°37.184 196.9 13.8 198 23.5
2011-08-18 12:09:59 51°30.216 2°37.068 195.3 14 196 24.9
2011-08-18 12:10:59 51°29.995 2°36.961 194.1 13.7 199 23.5
2011-08-18 12:11:59 51°29.775 2°36.843 195.7 14.2 200 26.2
2011-08-18 12:12:59 51°29.555 2°36.738 193.8 13.9 197 26.4
2011-08-18 12:13:59 51°29.334 2°36.632 196.8 13.7 197 27.9
2011-08-18 12:14:59 51°29.117 2°36.625 162.1 13 162 28.4
2011-08-18 12:15:59 51°28.931 2°36.793 140.9 13 146 28.8
2011-08-18 12:16:59 51°28.762 2°37.002 133.6 12.8 141 34.2
2011-08-18 12:17:59 51°28.6 2°37.224 131.5 12.8 139 37.3
2011-08-18 12:18:59 51°28.437 2°37.445 133.6 12.9 142 36.3
2011-08-18 12:19:59 51°28.273 2°37.664 131.5 12.7 136 36.3
2011-08-18 12:20:59 51°28.11 2°37.884 132.9 12.8 139 39.6
2011-08-18 12:21:59 51°27.945 2°38.1 134.6 12.8 141 36.5
2011-08-18 12:22:59 51°27.782 2°38.32 133.1 12.8 139 32.5
2011-08-18 12:23:59 51°27.618 2°38.541 132.9 12.7 138 34.5
2011-08-18 12:24:59 51°27.451 2°38.756 134.6 13.1 144 33.6
2011-08-18 12:25:59 51°27.285 2°38.974 132.4 12.9 140 35.5
2011-08-18 12:26:59 51°27.12 2°39.192 133.2 12.8 139 33.9
2011-08-18 12:27:59 51°26.953 2°39.407 132.9 12.8 139 33.4
2011-08-18 12:28:59 51°26.791 2°39.627 133.3 12.7 138 32.7
2011-08-18 12:29:59 51°26.606 2°39.801 149.7 13.1 157 32.6
2011-08-18 12:30:59 51°26.402 2°39.936 151.6 13.2 158 32.7
2011-08-18 12:31:59 51°26.204 2°40.082 149.9 13.3 156 30.8
2011-08-18 12:32:59 51°26.005 2°40.215 150.4 12.9 155 31.5
2011-08-18 12:33:59 51°25.835 2°40.405 133.4 12.5 143 31.1
2011-08-18 12:34:59 51°25.676 2°40.611 131.2 12.2 139 29.1
2011-08-18 12:35:59 51°25.523 2°40.832 131.1 12.4 140 29.1
2011-08-18 12:36:59 51°25.37 2°41.056 130.6 12.5 137 27.7
2011-08-18 12:37:59 51°25.218 2°41.283 129.8 12.5 135 27.5
2011-08-18 12:38:59 51°25.065 2°41.51 130.7 12.6 137 27.4
2011-08-18 12:39:59 51°24.912 2°41.738 128.1 12.6 133 25.3
2011-08-18 12:40:59 51°24.771 2°41.983 125.5 12.6 132 28.6
2011-08-18 12:41:59 51°24.63 2°42.23 126.9 12.5 135 18.7
2011-08-18 12:42:59 51°24.485 2°42.472 128 12.7 134 26.1
2011-08-18 12:43:59 51°24.342 2°42.716 126.7 12.5 134 25.1
2011-08-18 12:44:59 51°24.204 2°42.968 126.3 12.5 130 26.3
2011-08-18 12:45:59 51°24.054 2°43.203 129.2 12.7 137 25
2011-08-18 12:46:59 51°23.901 2°43.433 131.1 12.7 139 24.1
2011-08-18 12:47:59 51°23.741 2°43.656 132.9 12.8 140 24.9
2011-08-18 12:48:59 51°23.587 2°43.888 131.2 12.8 137 27.6
2011-08-18 12:49:59 51°23.424 2°44.095 134 12.5 142 28.4
2011-08-18 12:50:59 51°23.271 2°44.317 130.1 12.5 137 28.3
2011-08-18 12:51:59 51°23.116 2°44.541 133.7 12.7 141 27.9
2011-08-18 12:52:59 51°22.953 2°44.759 132.2 12.7 137 28.2
2011-08-18 12:53:59 51°22.796 2°44.985 133.7 12.8 141 27.6
2011-08-18 12:54:59 51°22.633 2°45.204 134.4 12.8 139 27.2
2011-08-18 12:55:59 51°22.477 2°45.432 132.1 12.6 135 24.2
2011-08-18 12:56:59 51°22.319 2°45.661 134.1 13 138 23
2011-08-18 12:57:59 51°22.158 2°45.888 135.8 13 140 22.2
2011-08-18 12:58:59 51°21.992 2°46.111 136.2 12.9 141 22.7
2011-08-18 12:59:59 51°21.827 2°46.331 137.4 12.9 142 24.8
2011-08-18 13:00:59 51°21.66 2°46.546 138.1 12.9 143 26.5
2011-08-18 13:01:59 51°21.493 2°46.764 138.4 12.9 140 26.5
2011-08-18 13:02:59 51°21.329 2°46.986 135.2 13 139 24.4
2011-08-18 13:03:59 51°21.162 2°47.2 139.6 13 140 24.4
2011-08-18 13:04:59 51°20.992 2°47.411 138.5 12.8 142 22.1
2011-08-18 13:05:59 51°20.825 2°47.626 139.8 12.9 141 18.3
2011-08-18 13:06:59 51°20.658 2°47.843 140.2 13.2 142 21.3
2011-08-18 13:07:59 51°20.486 2°48.047 138.5 12.7 144 22.5
2011-08-18 13:08:59 51°20.325 2°48.27 136 13 139 23.9
2011-08-18 13:09:59 51°20.154 2°48.477 139.2 12.8 142 23.8
2011-08-18 13:10:59 51°19.988 2°48.689 137.4 12.6 141 23.5
2011-08-18 13:11:59 51°19.824 2°48.899 137.6 12.8 140 21.6
2011-08-18 13:12:59 51°19.658 2°49.109 140 12.6 143 19
2011-08-18 13:13:59 51°19.492 2°49.319 137.4 12.7 143 16.8
2011-08-18 13:14:59 51°19.332 2°49.544 135.8 12.8 138 15.4
2011-08-18 13:15:59 51°19.175 2°49.771 135.8 12.7 139 13.4
2011-08-18 13:16:59 51°19.02 2°50.006 138.1 12.9 138 13.8
2011-08-18 13:17:59 51°18.864 2°50.242 137.1 12.7 137 15.3
2011-08-18 13:18:59 51°18.709 2°50.477 137.4 13 137 16.5
2011-08-18 13:19:59 51°18.551 2°50.71 138.1 12.9 138 16.2
2011-08-18 13:20:59 51°18.383 2°50.92 142.3 12.8 146 15.8
2011-08-18 13:21:59 51°18.217 2°51.138 138.9 12.8 139 14.5
2011-08-18 13:22:59 51°18.052 2°51.357 141.2 12.8 141 13.7
2011-08-18 13:23:59 51°17.885 2°51.57 139.9 12.8 139 12.4
2011-08-18 13:24:59 51°17.718 2°51.783 143.2 12.9 143 12.3
2011-08-18 13:25:59 51°17.545 2°51.978 148.3 12.5 149 12.9
2011-08-18 13:26:59 51°17.363 2°52.155 149.2 12.9 149 13.5
2011-08-18 13:27:59 51°17.182 2°52.338 149.3 12.9 146 12.3
2011-08-18 13:28:59 51°16.998 2°52.502 159.2 12.5 158 12
2011-08-18 13:29:59 51°16.8 2°52.626 159 12.8 156 12.2
2011-08-18 13:30:59 51°16.61 2°52.773 156.6 12.7 153 13.8
2011-08-18 13:31:59 51°16.42 2°52.923 154.6 12.8 150 14.4
2011-08-18 13:32:59 51°16.233 2°53.075 154.1 12.6 153 14.7
2011-08-18 13:33:59 51°16.054 2°53.247 152.5 12.7 151 14.8
2011-08-18 13:34:59 51°15.871 2°53.41 153.4 12.6 152 15
2011-08-18 13:35:59 51°15.7 2°53.606 136.5 12.7 134 14.7
2011-08-18 13:36:59 51°15.545 2°53.837 144.1 12.9 145 14.4
2011-08-18 13:37:59 51°15.376 2°54.038 145 12.6 144 14.5
2011-08-18 13:38:59 51°15.204 2°54.235 145.3 12.6 144 14.2
2011-08-18 13:39:59 51°15.04 2°54.442 146.1 12.5 141 14.1
2011-08-18 13:40:59 51°14.876 2°54.642 146.2 12.3 142 14.6
2011-08-18 13:41:59 51°14.715 2°54.848 144.7 12.3 141 14.1
2011-08-18 13:42:59 51°14.546 2°55.052 148.6 13.2 141 14.2
2011-08-18 13:43:59 51°14.363 2°55.223 151.1 11.7 153 13.6
2011-08-18 13:44:59 51°14.222 2°55.339 153.5 8.4 154 13.7
2011-08-18 13:45:59 51°14.115 2°55.425 155.1 6.5 155 13.7
2011-08-18 13:47:00 51°14.021 2°55.493 155.2 5.9 155 13.9
2011-08-18 13:48:00 51°13.934 2°55.559 154 5.7 155 14.2
2011-08-18 13:49:00 51°13.851 2°55.623 153.4 5.3 154 14.1
2011-08-18 13:49:59 51°13.779 2°55.68 152.5 4.6 152 14.2
2011-08-18 13:50:59 51°13.72 2°55.747 135.7 4.2 135 14.4
2011-08-18 13:51:59 51°13.68 2°55.836 121.2 4.1 121 12.8
2011-08-18 13:52:59 51°13.651 2°55.932 109.7 3.8 110 13.6
2011-08-18 13:53:59 51°13.64 2°56.004 100.4 1 103 10.2
2011-08-18 13:54:59 51°13.637 2°56.014 112 0.4 126 10